sensor_id;sensor_type;location;lat;lon;timestamp;P1;durP1;ratioP1;P2;durP2;ratioP2
68256;SDS011;55069;51.568;4.656;2022-11-27T00:01:45;17.03;;;4.87;;
68256;SDS011;55069;51.568;4.656;2022-11-27T00:04:10;13.43;;;4.43;;
68256;SDS011;55069;51.568;4.656;2022-11-27T00:06:37;13.70;;;4.13;;
68256;SDS011;55069;51.568;4.656;2022-11-27T00:09:05;12.90;;;4.80;;
68256;SDS011;55069;51.568;4.656;2022-11-27T00:11:32;13.13;;;4.63;;
68256;SDS011;55069;51.568;4.656;2022-11-27T00:13:58;18.42;;;4.75;;
68256;SDS011;55069;51.568;4.656;2022-11-27T00:16:24;14.70;;;4.90;;
68256;SDS011;55069;51.568;4.656;2022-11-27T00:18:50;14.88;;;4.60;;
68256;SDS011;55069;51.568;4.656;2022-11-27T00:21:21;12.63;;;3.85;;
68256;SDS011;55069;51.568;4.656;2022-11-27T00:23:52;13.88;;;4.10;;
68256;SDS011;55069;51.568;4.656;2022-11-27T00:26:18;23.35;;;4.78;;
68256;SDS011;55069;51.568;4.656;2022-11-27T00:28:44;19.73;;;5.17;;
68256;SDS011;55069;51.568;4.656;2022-11-27T00:31:24;18.88;;;4.22;;
68256;SDS011;55069;51.568;4.656;2022-11-27T00:33:53;13.98;;;3.72;;
68256;SDS011;55069;51.568;4.656;2022-11-27T00:36:19;12.17;;;3.80;;
68256;SDS011;55069;51.568;4.656;2022-11-27T00:38:45;14.07;;;4.65;;
68256;SDS011;55069;51.568;4.656;2022-11-27T00:41:13;19.77;;;4.60;;
68256;SDS011;55069;51.568;4.656;2022-11-27T00:43:41;12.45;;;3.72;;
68256;SDS011;55069;51.568;4.656;2022-11-27T00:46:07;17.52;;;4.35;;
68256;SDS011;55069;51.568;4.656;2022-11-27T00:48:33;13.00;;;3.63;;
68256;SDS011;55069;51.568;4.656;2022-11-27T00:50:59;20.58;;;4.05;;
68256;SDS011;55069;51.568;4.656;2022-11-27T00:53:27;11.68;;;4.10;;
68256;SDS011;55069;51.568;4.656;2022-11-27T00:55:53;16.85;;;4.03;;
68256;SDS011;55069;51.568;4.656;2022-11-27T00:58:20;14.73;;;3.90;;
68256;SDS011;55069;51.568;4.656;2022-11-27T01:00:45;24.50;;;4.30;;
68256;SDS011;55069;51.568;4.656;2022-11-27T01:03:11;14.63;;;4.20;;
68256;SDS011;55069;51.568;4.656;2022-11-27T01:05:36;13.63;;;4.35;;
68256;SDS011;55069;51.568;4.656;2022-11-27T01:08:02;14.20;;;3.90;;
68256;SDS011;55069;51.568;4.656;2022-11-27T01:10:28;9.55;;;3.13;;
68256;SDS011;55069;51.568;4.656;2022-11-27T01:12:54;14.20;;;4.47;;
68256;SDS011;55069;51.568;4.656;2022-11-27T01:15:19;15.10;;;4.55;;
68256;SDS011;55069;51.568;4.656;2022-11-27T01:17:45;15.60;;;3.93;;
68256;SDS011;55069;51.568;4.656;2022-11-27T01:20:10;15.53;;;3.60;;
68256;SDS011;55069;51.568;4.656;2022-11-27T01:22:36;12.07;;;4.05;;
68256;SDS011;55069;51.568;4.656;2022-11-27T01:25:02;13.80;;;4.00;;
68256;SDS011;55069;51.568;4.656;2022-11-27T01:27:27;13.17;;;3.53;;
68256;SDS011;55069;51.568;4.656;2022-11-27T01:29:53;13.10;;;3.55;;
68256;SDS011;55069;51.568;4.656;2022-11-27T01:32:18;16.05;;;4.30;;
68256;SDS011;55069;51.568;4.656;2022-11-27T01:34:44;13.60;;;3.80;;
68256;SDS011;55069;51.568;4.656;2022-11-27T01:37:09;15.60;;;4.03;;
68256;SDS011;55069;51.568;4.656;2022-11-27T01:39:35;13.23;;;3.80;;
68256;SDS011;55069;51.568;4.656;2022-11-27T01:42:00;15.55;;;4.53;;
68256;SDS011;55069;51.568;4.656;2022-11-27T01:46:52;13.30;;;3.70;;
68256;SDS011;55069;51.568;4.656;2022-11-27T01:49:46;10.80;;;3.55;;
68256;SDS011;55069;51.568;4.656;2022-11-27T01:52:17;12.40;;;4.00;;
68256;SDS011;55069;51.568;4.656;2022-11-27T01:54:48;10.10;;;3.67;;
68256;SDS011;55069;51.568;4.656;2022-11-27T01:57:23;15.35;;;3.65;;
68256;SDS011;55069;51.568;4.656;2022-11-27T02:00:00;13.13;;;3.88;;
68256;SDS011;55069;51.568;4.656;2022-11-27T02:02:26;14.82;;;3.92;;
68256;SDS011;55069;51.568;4.656;2022-11-27T02:04:56;15.07;;;4.10;;
68256;SDS011;55069;51.568;4.656;2022-11-27T02:07:22;13.43;;;4.00;;
68256;SDS011;55069;51.568;4.656;2022-11-27T02:09:48;12.25;;;3.60;;
68256;SDS011;55069;51.568;4.656;2022-11-27T02:31:39;9.13;;;3.00;;
68256;SDS011;55069;51.568;4.656;2022-11-27T02:34:21;14.63;;;4.03;;
68256;SDS011;55069;51.568;4.656;2022-11-27T02:42:26;13.13;;;3.63;;
68256;SDS011;55069;51.568;4.656;2022-11-27T02:45:02;11.70;;;3.03;;
68256;SDS011;55069;51.568;4.656;2022-11-27T02:47:32;8.00;;;3.00;;
68256;SDS011;55069;51.568;4.656;2022-11-27T02:49:59;11.20;;;3.13;;
68256;SDS011;55069;51.568;4.656;2022-11-27T02:52:25;9.25;;;2.58;;
68256;SDS011;55069;51.568;4.656;2022-11-27T02:54:53;14.13;;;2.70;;
68256;SDS011;55069;51.568;4.656;2022-11-27T02:57:22;7.72;;;2.58;;
68256;SDS011;55069;51.568;4.656;2022-11-27T02:59:50;13.90;;;3.58;;
68256;SDS011;55069;51.568;4.656;2022-11-27T03:02:17;10.90;;;3.22;;
68256;SDS011;55069;51.568;4.656;2022-11-27T03:04:48;8.23;;;2.88;;
68256;SDS011;55069;51.568;4.656;2022-11-27T03:07:31;9.83;;;2.47;;
68256;SDS011;55069;51.568;4.656;2022-11-27T03:10:09;6.88;;;2.55;;
68256;SDS011;55069;51.568;4.656;2022-11-27T03:12:41;6.95;;;2.42;;
68256;SDS011;55069;51.568;4.656;2022-11-27T03:15:07;5.95;;;2.22;;
68256;SDS011;55069;51.568;4.656;2022-11-27T03:17:40;13.15;;;3.05;;
68256;SDS011;55069;51.568;4.656;2022-11-27T03:22:43;7.57;;;2.13;;
68256;SDS011;55069;51.568;4.656;2022-11-27T03:25:09;8.87;;;2.70;;
68256;SDS011;55069;51.568;4.656;2022-11-27T03:27:37;8.93;;;2.38;;
68256;SDS011;55069;51.568;4.656;2022-11-27T03:30:07;6.97;;;2.08;;
68256;SDS011;55069;51.568;4.656;2022-11-27T03:32:34;4.97;;;1.87;;
68256;SDS011;55069;51.568;4.656;2022-11-27T03:35:01;5.85;;;1.90;;
68256;SDS011;55069;51.568;4.656;2022-11-27T03:37:27;6.35;;;1.88;;
68256;SDS011;55069;51.568;4.656;2022-11-27T03:39:53;9.10;;;1.93;;
68256;SDS011;55069;51.568;4.656;2022-11-27T03:42:24;7.18;;;2.08;;
68256;SDS011;55069;51.568;4.656;2022-11-27T03:52:38;8.50;;;2.13;;
68256;SDS011;55069;51.568;4.656;2022-11-27T03:58:05;7.18;;;2.10;;
68256;SDS011;55069;51.568;4.656;2022-11-27T04:00:36;4.77;;;1.77;;
68256;SDS011;55069;51.568;4.656;2022-11-27T04:03:07;5.65;;;1.50;;
68256;SDS011;55069;51.568;4.656;2022-11-27T04:05:34;5.38;;;1.80;;
68256;SDS011;55069;51.568;4.656;2022-11-27T04:08:00;6.63;;;1.90;;
68256;SDS011;55069;51.568;4.656;2022-11-27T04:10:25;8.73;;;2.38;;
68256;SDS011;55069;51.568;4.656;2022-11-27T04:12:51;5.57;;;1.53;;
68256;SDS011;55069;51.568;4.656;2022-11-27T04:15:17;9.23;;;2.07;;
68256;SDS011;55069;51.568;4.656;2022-11-27T04:17:42;7.03;;;2.53;;
68256;SDS011;55069;51.568;4.656;2022-11-27T04:20:09;7.70;;;2.33;;
68256;SDS011;55069;51.568;4.656;2022-11-27T04:22:36;8.20;;;1.90;;
68256;SDS011;55069;51.568;4.656;2022-11-27T04:25:01;9.57;;;1.90;;
68256;SDS011;55069;51.568;4.656;2022-11-27T04:27:27;7.10;;;2.10;;
68256;SDS011;55069;51.568;4.656;2022-11-27T04:29:53;6.43;;;1.90;;
68256;SDS011;55069;51.568;4.656;2022-11-27T04:32:19;7.25;;;2.03;;
68256;SDS011;55069;51.568;4.656;2022-11-27T04:34:44;6.70;;;2.03;;
68256;SDS011;55069;51.568;4.656;2022-11-27T04:37:10;6.87;;;2.37;;
68256;SDS011;55069;51.568;4.656;2022-11-27T04:39:35;9.80;;;2.20;;
68256;SDS011;55069;51.568;4.656;2022-11-27T04:42:01;10.57;;;2.22;;
68256;SDS011;55069;51.568;4.656;2022-11-27T04:44:26;8.00;;;1.83;;
68256;SDS011;55069;51.568;4.656;2022-11-27T04:46:52;6.60;;;1.80;;
68256;SDS011;55069;51.568;4.656;2022-11-27T04:49:17;6.30;;;1.77;;
68256;SDS011;55069;51.568;4.656;2022-11-27T04:51:43;7.37;;;2.33;;
68256;SDS011;55069;51.568;4.656;2022-11-27T04:54:10;5.55;;;1.95;;
68256;SDS011;55069;51.568;4.656;2022-11-27T04:56:35;5.57;;;2.30;;
68256;SDS011;55069;51.568;4.656;2022-11-27T04:59:01;4.72;;;1.75;;
68256;SDS011;55069;51.568;4.656;2022-11-27T05:01:26;11.00;;;2.07;;
68256;SDS011;55069;51.568;4.656;2022-11-27T05:03:52;9.80;;;1.97;;
68256;SDS011;55069;51.568;4.656;2022-11-27T05:06:17;4.67;;;2.40;;
68256;SDS011;55069;51.568;4.656;2022-11-27T05:08:43;8.02;;;2.15;;
68256;SDS011;55069;51.568;4.656;2022-11-27T05:11:12;9.47;;;2.70;;
68256;SDS011;55069;51.568;4.656;2022-11-27T05:13:39;6.40;;;2.83;;
68256;SDS011;55069;51.568;4.656;2022-11-27T05:16:05;6.63;;;2.70;;
68256;SDS011;55069;51.568;4.656;2022-11-27T05:18:31;5.70;;;1.90;;
68256;SDS011;55069;51.568;4.656;2022-11-27T05:20:57;8.73;;;2.33;;
68256;SDS011;55069;51.568;4.656;2022-11-27T05:23:24;6.15;;;2.17;;
68256;SDS011;55069;51.568;4.656;2022-11-27T05:25:51;8.63;;;2.42;;
68256;SDS011;55069;51.568;4.656;2022-11-27T05:28:17;7.77;;;2.57;;
68256;SDS011;55069;51.568;4.656;2022-11-27T05:30:42;6.75;;;1.80;;
68256;SDS011;55069;51.568;4.656;2022-11-27T05:33:08;3.87;;;2.10;;
68256;SDS011;55069;51.568;4.656;2022-11-27T05:35:33;8.93;;;2.70;;
68256;SDS011;55069;51.568;4.656;2022-11-27T05:37:59;6.78;;;2.33;;
68256;SDS011;55069;51.568;4.656;2022-11-27T05:40:24;7.60;;;2.13;;
68256;SDS011;55069;51.568;4.656;2022-11-27T05:42:50;7.50;;;2.60;;
68256;SDS011;55069;51.568;4.656;2022-11-27T05:45:15;10.87;;;2.57;;
68256;SDS011;55069;51.568;4.656;2022-11-27T05:47:41;6.63;;;2.38;;
68256;SDS011;55069;51.568;4.656;2022-11-27T05:50:06;10.37;;;2.80;;
68256;SDS011;55069;51.568;4.656;2022-11-27T05:52:32;7.72;;;2.42;;
68256;SDS011;55069;51.568;4.656;2022-11-27T05:54:58;7.57;;;2.40;;
68256;SDS011;55069;51.568;4.656;2022-11-27T05:57:23;12.03;;;2.83;;
68256;SDS011;55069;51.568;4.656;2022-11-27T05:59:49;7.57;;;2.70;;
68256;SDS011;55069;51.568;4.656;2022-11-27T06:02:14;7.85;;;2.25;;
68256;SDS011;55069;51.568;4.656;2022-11-27T06:04:40;9.03;;;2.60;;
68256;SDS011;55069;51.568;4.656;2022-11-27T06:07:05;10.13;;;2.30;;
68256;SDS011;55069;51.568;4.656;2022-11-27T06:09:31;7.82;;;3.10;;
68256;SDS011;55069;51.568;4.656;2022-11-27T06:11:56;10.33;;;2.63;;
68256;SDS011;55069;51.568;4.656;2022-11-27T06:14:22;6.30;;;2.50;;
68256;SDS011;55069;51.568;4.656;2022-11-27T06:16:47;10.47;;;3.57;;
68256;SDS011;55069;51.568;4.656;2022-11-27T06:19:13;7.82;;;2.70;;
68256;SDS011;55069;51.568;4.656;2022-11-27T06:21:38;9.80;;;2.70;;
68256;SDS011;55069;51.568;4.656;2022-11-27T06:24:04;8.23;;;3.40;;
68256;SDS011;55069;51.568;4.656;2022-11-27T06:26:30;10.20;;;2.87;;
68256;SDS011;55069;51.568;4.656;2022-11-27T06:28:57;12.85;;;2.88;;
68256;SDS011;55069;51.568;4.656;2022-11-27T06:31:25;8.10;;;2.97;;
68256;SDS011;55069;51.568;4.656;2022-11-27T06:33:53;8.50;;;2.97;;
68256;SDS011;55069;51.568;4.656;2022-11-27T06:36:21;13.75;;;3.58;;
68256;SDS011;55069;51.568;4.656;2022-11-27T06:38:47;10.90;;;2.57;;
68256;SDS011;55069;51.568;4.656;2022-11-27T06:41:14;8.48;;;3.00;;
68256;SDS011;55069;51.568;4.656;2022-11-27T06:43:41;6.97;;;3.00;;
68256;SDS011;55069;51.568;4.656;2022-11-27T06:46:08;9.38;;;3.13;;
68256;SDS011;55069;51.568;4.656;2022-11-27T06:48:36;10.02;;;3.05;;
68256;SDS011;55069;51.568;4.656;2022-11-27T06:51:02;14.80;;;3.50;;
68256;SDS011;55069;51.568;4.656;2022-11-27T06:53:30;6.97;;;3.05;;
68256;SDS011;55069;51.568;4.656;2022-11-27T06:55:58;10.45;;;3.22;;
68256;SDS011;55069;51.568;4.656;2022-11-27T06:58:23;10.67;;;2.77;;
68256;SDS011;55069;51.568;4.656;2022-11-27T07:00:49;6.20;;;2.87;;
68256;SDS011;55069;51.568;4.656;2022-11-27T07:03:20;13.32;;;3.35;;
68256;SDS011;55069;51.568;4.656;2022-11-27T07:05:46;9.17;;;3.10;;
68256;SDS011;55069;51.568;4.656;2022-11-27T07:08:11;15.65;;;4.32;;
68256;SDS011;55069;51.568;4.656;2022-11-27T07:10:36;9.30;;;3.13;;
68256;SDS011;55069;51.568;4.656;2022-11-27T07:13:02;17.77;;;3.87;;
68256;SDS011;55069;51.568;4.656;2022-11-27T07:15:27;7.37;;;2.87;;
68256;SDS011;55069;51.568;4.656;2022-11-27T07:17:53;8.07;;;3.30;;
68256;SDS011;55069;51.568;4.656;2022-11-27T07:20:18;11.60;;;3.45;;
68256;SDS011;55069;51.568;4.656;2022-11-27T07:22:44;8.23;;;3.30;;
68256;SDS011;55069;51.568;4.656;2022-11-27T07:25:09;10.20;;;3.47;;
68256;SDS011;55069;51.568;4.656;2022-11-27T07:27:35;8.77;;;3.30;;
68256;SDS011;55069;51.568;4.656;2022-11-27T07:30:00;11.93;;;3.22;;
68256;SDS011;55069;51.568;4.656;2022-11-27T07:32:26;10.97;;;3.40;;
68256;SDS011;55069;51.568;4.656;2022-11-27T07:34:51;11.10;;;3.60;;
68256;SDS011;55069;51.568;4.656;2022-11-27T07:37:17;14.50;;;3.70;;
68256;SDS011;55069;51.568;4.656;2022-11-27T07:39:42;9.63;;;3.22;;
68256;SDS011;55069;51.568;4.656;2022-11-27T07:42:08;12.13;;;4.00;;
68256;SDS011;55069;51.568;4.656;2022-11-27T07:44:33;12.47;;;4.00;;
68256;SDS011;55069;51.568;4.656;2022-11-27T07:46:59;10.10;;;3.53;;
68256;SDS011;55069;51.568;4.656;2022-11-27T07:49:24;14.20;;;3.92;;
68256;SDS011;55069;51.568;4.656;2022-11-27T07:51:50;8.57;;;3.25;;
68256;SDS011;55069;51.568;4.656;2022-11-27T07:54:15;15.40;;;4.13;;
68256;SDS011;55069;51.568;4.656;2022-11-27T07:56:41;14.63;;;3.53;;
68256;SDS011;55069;51.568;4.656;2022-11-27T07:59:06;11.67;;;4.17;;
68256;SDS011;55069;51.568;4.656;2022-11-27T08:01:31;14.02;;;4.40;;
68256;SDS011;55069;51.568;4.656;2022-11-27T08:03:57;8.55;;;3.72;;
68256;SDS011;55069;51.568;4.656;2022-11-27T08:06:24;10.43;;;3.73;;
68256;SDS011;55069;51.568;4.656;2022-11-27T08:08:51;9.75;;;3.58;;
68256;SDS011;55069;51.568;4.656;2022-11-27T08:11:18;10.15;;;3.45;;
68256;SDS011;55069;51.568;4.656;2022-11-27T08:13:53;12.27;;;3.70;;
68256;SDS011;55069;51.568;4.656;2022-11-27T08:16:20;15.15;;;3.92;;
68256;SDS011;55069;51.568;4.656;2022-11-27T08:18:46;16.00;;;4.70;;
68256;SDS011;55069;51.568;4.656;2022-11-27T08:21:11;11.93;;;3.40;;
68256;SDS011;55069;51.568;4.656;2022-11-27T08:23:37;10.27;;;3.77;;
68256;SDS011;55069;51.568;4.656;2022-11-27T08:26:09;12.20;;;4.22;;
68256;SDS011;55069;51.568;4.656;2022-11-27T08:28:35;15.23;;;3.57;;
68256;SDS011;55069;51.568;4.656;2022-11-27T08:31:02;10.63;;;3.72;;
68256;SDS011;55069;51.568;4.656;2022-11-27T08:33:29;10.45;;;4.13;;
68256;SDS011;55069;51.568;4.656;2022-11-27T08:35:54;9.85;;;3.60;;
68256;SDS011;55069;51.568;4.656;2022-11-27T08:38:20;10.37;;;3.30;;
68256;SDS011;55069;51.568;4.656;2022-11-27T08:40:59;10.70;;;3.53;;
68256;SDS011;55069;51.568;4.656;2022-11-27T08:43:26;11.40;;;4.38;;
68256;SDS011;55069;51.568;4.656;2022-11-27T08:45:52;9.73;;;3.53;;
68256;SDS011;55069;51.568;4.656;2022-11-27T08:48:19;11.82;;;4.00;;
68256;SDS011;55069;51.568;4.656;2022-11-27T08:50:45;11.60;;;4.50;;
68256;SDS011;55069;51.568;4.656;2022-11-27T08:53:11;13.63;;;4.23;;
68256;SDS011;55069;51.568;4.656;2022-11-27T08:55:38;11.85;;;3.80;;
68256;SDS011;55069;51.568;4.656;2022-11-27T08:58:03;13.20;;;4.43;;
68256;SDS011;55069;51.568;4.656;2022-11-27T09:00:30;12.32;;;4.03;;
68256;SDS011;55069;51.568;4.656;2022-11-27T09:02:57;13.27;;;4.20;;
68256;SDS011;55069;51.568;4.656;2022-11-27T09:05:24;11.75;;;3.80;;
68256;SDS011;55069;51.568;4.656;2022-11-27T09:07:51;10.98;;;3.85;;
68256;SDS011;55069;51.568;4.656;2022-11-27T09:10:16;11.40;;;4.33;;
68256;SDS011;55069;51.568;4.656;2022-11-27T09:12:42;10.70;;;4.07;;
68256;SDS011;55069;51.568;4.656;2022-11-27T09:15:11;11.07;;;4.07;;
68256;SDS011;55069;51.568;4.656;2022-11-27T09:17:37;13.30;;;4.38;;
68256;SDS011;55069;51.568;4.656;2022-11-27T09:20:05;10.50;;;3.90;;
68256;SDS011;55069;51.568;4.656;2022-11-27T09:22:34;10.63;;;3.80;;
68256;SDS011;55069;51.568;4.656;2022-11-27T09:25:00;11.80;;;4.10;;
68256;SDS011;55069;51.568;4.656;2022-11-27T09:27:26;10.25;;;3.55;;
68256;SDS011;55069;51.568;4.656;2022-11-27T09:29:51;12.77;;;3.93;;
68256;SDS011;55069;51.568;4.656;2022-11-27T09:32:17;9.15;;;4.35;;
68256;SDS011;55069;51.568;4.656;2022-11-27T09:34:43;8.82;;;3.85;;
68256;SDS011;55069;51.568;4.656;2022-11-27T09:37:09;13.80;;;3.50;;
68256;SDS011;55069;51.568;4.656;2022-11-27T09:39:35;8.35;;;4.00;;
68256;SDS011;55069;51.568;4.656;2022-11-27T09:42:02;8.57;;;3.47;;
68256;SDS011;55069;51.568;4.656;2022-11-27T09:46:55;8.80;;;3.60;;
68256;SDS011;55069;51.568;4.656;2022-11-27T09:49:26;9.00;;;3.38;;
68256;SDS011;55069;51.568;4.656;2022-11-27T09:52:02;8.88;;;3.42;;
68256;SDS011;55069;51.568;4.656;2022-11-27T09:55:09;16.02;;;4.13;;
68256;SDS011;55069;51.568;4.656;2022-11-27T09:57:35;9.47;;;3.20;;
68256;SDS011;55069;51.568;4.656;2022-11-27T10:00:13;10.43;;;3.83;;
68256;SDS011;55069;51.568;4.656;2022-11-27T10:02:40;11.65;;;3.58;;
68256;SDS011;55069;51.568;4.656;2022-11-27T10:05:12;11.68;;;3.67;;
68256;SDS011;55069;51.568;4.656;2022-11-27T10:13:07;8.98;;;3.83;;
68256;SDS011;55069;51.568;4.656;2022-11-27T10:15:43;11.00;;;3.88;;
68256;SDS011;55069;51.568;4.656;2022-11-27T10:24:06;11.63;;;4.43;;
68256;SDS011;55069;51.568;4.656;2022-11-27T10:27:08;9.02;;;3.47;;
68256;SDS011;55069;51.568;4.656;2022-11-27T10:29:42;10.15;;;3.38;;
68256;SDS011;55069;51.568;4.656;2022-11-27T10:32:16;9.77;;;3.47;;
68256;SDS011;55069;51.568;4.656;2022-11-27T10:34:46;11.07;;;3.75;;
68256;SDS011;55069;51.568;4.656;2022-11-27T10:37:23;11.43;;;4.13;;
68256;SDS011;55069;51.568;4.656;2022-11-27T10:45:24;9.75;;;3.63;;
68256;SDS011;55069;51.568;4.656;2022-11-27T10:47:55;10.63;;;3.75;;
68256;SDS011;55069;51.568;4.656;2022-11-27T10:50:21;10.83;;;4.03;;
68256;SDS011;55069;51.568;4.656;2022-11-27T10:52:54;12.40;;;3.67;;
68256;SDS011;55069;51.568;4.656;2022-11-27T10:58:14;14.52;;;3.90;;
68256;SDS011;55069;51.568;4.656;2022-11-27T11:00:58;8.17;;;3.50;;
68256;SDS011;55069;51.568;4.656;2022-11-27T11:03:25;8.38;;;3.50;;
68256;SDS011;55069;51.568;4.656;2022-11-27T11:05:54;8.27;;;3.88;;
68256;SDS011;55069;51.568;4.656;2022-11-27T11:08:22;11.05;;;3.97;;
68256;SDS011;55069;51.568;4.656;2022-11-27T11:10:53;6.63;;;3.70;;
68256;SDS011;55069;51.568;4.656;2022-11-27T11:16:18;8.88;;;3.35;;
68256;SDS011;55069;51.568;4.656;2022-11-27T11:18:48;10.00;;;3.50;;
68256;SDS011;55069;51.568;4.656;2022-11-27T11:21:34;8.70;;;3.40;;
68256;SDS011;55069;51.568;4.656;2022-11-27T11:24:05;7.07;;;3.47;;
68256;SDS011;55069;51.568;4.656;2022-11-27T11:26:43;7.93;;;3.70;;
68256;SDS011;55069;51.568;4.656;2022-11-27T11:31:52;8.97;;;3.63;;
68256;SDS011;55069;51.568;4.656;2022-11-27T11:34:27;10.57;;;4.15;;
68256;SDS011;55069;51.568;4.656;2022-11-27T11:37:03;6.25;;;3.30;;
68256;SDS011;55069;51.568;4.656;2022-11-27T11:39:33;9.25;;;3.67;;
68256;SDS011;55069;51.568;4.656;2022-11-27T11:42:09;7.35;;;3.78;;
68256;SDS011;55069;51.568;4.656;2022-11-27T11:44:45;8.47;;;3.23;;
68256;SDS011;55069;51.568;4.656;2022-11-27T11:47:16;7.53;;;3.40;;
68256;SDS011;55069;51.568;4.656;2022-11-27T11:49:43;11.38;;;3.53;;
68256;SDS011;55069;51.568;4.656;2022-11-27T11:52:25;7.95;;;3.75;;
68256;SDS011;55069;51.568;4.656;2022-11-27T11:55:19;8.85;;;3.65;;
68256;SDS011;55069;51.568;4.656;2022-11-27T12:15:00;7.32;;;3.25;;
68256;SDS011;55069;51.568;4.656;2022-11-27T12:33:53;7.35;;;3.58;;
68256;SDS011;55069;51.568;4.656;2022-11-27T12:36:36;6.87;;;3.83;;
68256;SDS011;55069;51.568;4.656;2022-11-27T12:39:24;10.93;;;3.78;;
68256;SDS011;55069;51.568;4.656;2022-11-27T12:47:36;9.50;;;4.40;;
68256;SDS011;55069;51.568;4.656;2022-11-27T12:50:08;7.80;;;3.67;;
68256;SDS011;55069;51.568;4.656;2022-11-27T12:52:42;7.72;;;4.15;;
68256;SDS011;55069;51.568;4.656;2022-11-27T12:55:14;10.82;;;4.22;;
68256;SDS011;55069;51.568;4.656;2022-11-27T12:57:46;10.55;;;4.13;;
68256;SDS011;55069;51.568;4.656;2022-11-27T13:00:16;12.55;;;4.32;;
68256;SDS011;55069;51.568;4.656;2022-11-27T13:03:01;8.47;;;3.90;;
68256;SDS011;55069;51.568;4.656;2022-11-27T13:05:33;7.55;;;3.58;;
68256;SDS011;55069;51.568;4.656;2022-11-27T13:08:05;6.85;;;3.40;;
68256;SDS011;55069;51.568;4.656;2022-11-27T13:13:21;7.65;;;3.67;;
68256;SDS011;55069;51.568;4.656;2022-11-27T13:15:54;8.30;;;3.80;;
68256;SDS011;55069;51.568;4.656;2022-11-27T13:21:19;9.77;;;4.13;;
68256;SDS011;55069;51.568;4.656;2022-11-27T13:23:51;10.43;;;4.63;;
68256;SDS011;55069;51.568;4.656;2022-11-27T13:26:21;6.63;;;3.70;;
68256;SDS011;55069;51.568;4.656;2022-11-27T13:28:52;9.90;;;3.77;;
68256;SDS011;55069;51.568;4.656;2022-11-27T13:31:31;12.30;;;4.68;;
68256;SDS011;55069;51.568;4.656;2022-11-27T13:34:02;9.00;;;4.07;;
68256;SDS011;55069;51.568;4.656;2022-11-27T13:36:36;9.32;;;4.13;;
68256;SDS011;55069;51.568;4.656;2022-11-27T13:39:04;9.65;;;4.70;;
68256;SDS011;55069;51.568;4.656;2022-11-27T13:41:35;10.07;;;4.07;;
68256;SDS011;55069;51.568;4.656;2022-11-27T13:44:24;11.02;;;4.22;;
68256;SDS011;55069;51.568;4.656;2022-11-27T13:46:52;8.48;;;4.13;;
68256;SDS011;55069;51.568;4.656;2022-11-27T13:49:30;10.70;;;4.32;;
68256;SDS011;55069;51.568;4.656;2022-11-27T13:54:50;11.60;;;4.60;;
68256;SDS011;55069;51.568;4.656;2022-11-27T13:57:17;7.80;;;4.15;;
68256;SDS011;55069;51.568;4.656;2022-11-27T13:59:55;6.95;;;4.25;;
68256;SDS011;55069;51.568;4.656;2022-11-27T14:02:38;11.05;;;4.57;;
68256;SDS011;55069;51.568;4.656;2022-11-27T14:05:09;10.65;;;4.28;;
68256;SDS011;55069;51.568;4.656;2022-11-27T14:08:13;10.70;;;4.10;;
68256;SDS011;55069;51.568;4.656;2022-11-27T14:10:31;9.88;;;4.88;;
68256;SDS011;55069;51.568;4.656;2022-11-27T14:13:01;8.25;;;4.68;;
68256;SDS011;55069;51.568;4.656;2022-11-27T14:15:32;9.38;;;4.60;;
68256;SDS011;55069;51.568;4.656;2022-11-27T14:20:34;10.87;;;5.13;;
68256;SDS011;55069;51.568;4.656;2022-11-27T14:23:09;10.68;;;4.53;;
68256;SDS011;55069;51.568;4.656;2022-11-27T14:25:35;9.63;;;5.10;;
68256;SDS011;55069;51.568;4.656;2022-11-27T14:30:43;11.18;;;5.00;;
68256;SDS011;55069;51.568;4.656;2022-11-27T14:36:17;12.45;;;4.75;;
68256;SDS011;55069;51.568;4.656;2022-11-27T14:38:49;9.52;;;4.68;;
68256;SDS011;55069;51.568;4.656;2022-11-27T14:41:15;10.23;;;4.73;;
68256;SDS011;55069;51.568;4.656;2022-11-27T14:43:46;12.15;;;4.93;;
68256;SDS011;55069;51.568;4.656;2022-11-27T14:46:13;9.77;;;5.13;;
68256;SDS011;55069;51.568;4.656;2022-11-27T14:48:48;12.73;;;5.07;;
68256;SDS011;55069;51.568;4.656;2022-11-27T14:51:20;14.15;;;5.78;;
68256;SDS011;55069;51.568;4.656;2022-11-27T14:53:48;11.40;;;5.25;;
68256;SDS011;55069;51.568;4.656;2022-11-27T14:56:16;9.10;;;4.72;;
68256;SDS011;55069;51.568;4.656;2022-11-27T14:58:46;10.33;;;4.30;;
68256;SDS011;55069;51.568;4.656;2022-11-27T15:01:20;12.48;;;5.43;;
68256;SDS011;55069;51.568;4.656;2022-11-27T15:03:58;11.88;;;4.82;;
68256;SDS011;55069;51.568;4.656;2022-11-27T15:06:38;9.73;;;4.38;;
68256;SDS011;55069;51.568;4.656;2022-11-27T15:09:17;8.90;;;4.72;;
68256;SDS011;55069;51.568;4.656;2022-11-27T15:11:44;12.37;;;4.57;;
68256;SDS011;55069;51.568;4.656;2022-11-27T15:14:14;11.82;;;5.05;;
68256;SDS011;55069;51.568;4.656;2022-11-27T15:16:43;14.73;;;5.22;;
68256;SDS011;55069;51.568;4.656;2022-11-27T15:19:43;11.85;;;5.40;;
68256;SDS011;55069;51.568;4.656;2022-11-27T15:22:02;10.43;;;4.88;;
68256;SDS011;55069;51.568;4.656;2022-11-27T15:24:35;10.23;;;5.30;;
68256;SDS011;55069;51.568;4.656;2022-11-27T15:29:38;13.75;;;5.45;;
68256;SDS011;55069;51.568;4.656;2022-11-27T15:32:17;12.18;;;5.88;;
68256;SDS011;55069;51.568;4.656;2022-11-27T15:34:44;11.82;;;5.53;;
68256;SDS011;55069;51.568;4.656;2022-11-27T15:37:21;12.27;;;6.07;;
68256;SDS011;55069;51.568;4.656;2022-11-27T15:39:55;8.85;;;4.88;;
68256;SDS011;55069;51.568;4.656;2022-11-27T15:42:22;12.23;;;5.70;;
68256;SDS011;55069;51.568;4.656;2022-11-27T15:44:51;9.55;;;5.55;;
68256;SDS011;55069;51.568;4.656;2022-11-27T15:47:28;11.20;;;5.40;;
68256;SDS011;55069;51.568;4.656;2022-11-27T15:49:57;9.03;;;4.90;;
68256;SDS011;55069;51.568;4.656;2022-11-27T15:52:23;9.30;;;5.32;;
68256;SDS011;55069;51.568;4.656;2022-11-27T15:54:49;11.40;;;5.30;;
68256;SDS011;55069;51.568;4.656;2022-11-27T15:57:15;10.55;;;5.68;;
68256;SDS011;55069;51.568;4.656;2022-11-27T15:59:41;11.13;;;5.60;;
68256;SDS011;55069;51.568;4.656;2022-11-27T16:02:06;10.77;;;5.63;;
68256;SDS011;55069;51.568;4.656;2022-11-27T16:04:34;10.18;;;5.30;;
68256;SDS011;55069;51.568;4.656;2022-11-27T16:07:00;12.53;;;5.37;;
68256;SDS011;55069;51.568;4.656;2022-11-27T16:09:25;10.97;;;5.67;;
68256;SDS011;55069;51.568;4.656;2022-11-27T16:11:51;12.80;;;5.72;;
68256;SDS011;55069;51.568;4.656;2022-11-27T16:14:17;13.90;;;6.10;;
68256;SDS011;55069;51.568;4.656;2022-11-27T16:16:42;10.18;;;5.18;;
68256;SDS011;55069;51.568;4.656;2022-11-27T16:19:08;10.80;;;5.53;;
68256;SDS011;55069;51.568;4.656;2022-11-27T16:21:36;12.10;;;5.57;;
68256;SDS011;55069;51.568;4.656;2022-11-27T16:24:06;13.23;;;5.68;;
68256;SDS011;55069;51.568;4.656;2022-11-27T16:26:32;12.23;;;5.22;;
68256;SDS011;55069;51.568;4.656;2022-11-27T16:28:58;10.35;;;5.80;;
68256;SDS011;55069;51.568;4.656;2022-11-27T16:31:24;10.93;;;5.60;;
68256;SDS011;55069;51.568;4.656;2022-11-27T16:33:51;8.77;;;4.85;;
68256;SDS011;55069;51.568;4.656;2022-11-27T16:36:19;9.95;;;5.60;;
68256;SDS011;55069;51.568;4.656;2022-11-27T16:38:45;11.30;;;5.18;;
68256;SDS011;55069;51.568;4.656;2022-11-27T16:41:12;10.00;;;5.13;;
68256;SDS011;55069;51.568;4.656;2022-11-27T16:43:42;10.50;;;5.30;;
68256;SDS011;55069;51.568;4.656;2022-11-27T16:46:10;11.73;;;5.57;;
68256;SDS011;55069;51.568;4.656;2022-11-27T16:48:37;11.55;;;5.35;;
68256;SDS011;55069;51.568;4.656;2022-11-27T16:51:05;12.73;;;6.20;;
68256;SDS011;55069;51.568;4.656;2022-11-27T16:53:31;12.33;;;5.97;;
68256;SDS011;55069;51.568;4.656;2022-11-27T16:55:57;9.00;;;5.50;;
68256;SDS011;55069;51.568;4.656;2022-11-27T16:58:23;9.07;;;5.78;;